createdAt,value
2023-03-19T00:49:30.076Z,-144.17
2023-03-19T00:51:58.502Z,-144.17
2023-03-19T00:54:26.776Z,-144.17
2023-03-19T00:56:55.110Z,-144.17
2023-03-19T00:59:25.655Z,-144.17
2023-03-19T01:01:53.931Z,-144.17
2023-03-19T01:04:23.461Z,-144.17
2023-03-19T01:06:52.735Z,-144.17
2023-03-19T01:09:21.417Z,-144.17
2023-03-19T01:11:49.701Z,-144.17
2023-03-19T01:14:18.372Z,-144.17
2023-03-19T01:16:48.118Z,-144.17
2023-03-19T01:19:16.545Z,-144.17
2023-03-19T01:21:46.729Z,-144.17
2023-03-19T01:24:15.160Z,-144.17
2023-03-19T01:26:43.461Z,-144.17
2023-03-19T01:29:11.855Z,-144.17
2023-03-19T01:31:40.136Z,-144.17
2023-03-19T01:34:09.899Z,-144.17
2023-03-19T01:36:38.536Z,-144.17
2023-03-19T01:39:07.763Z,-144.17
2023-03-19T01:41:36.141Z,-144.17
2023-03-19T01:44:04.654Z,-144.17
2023-03-19T01:46:34.597Z,-144.17
2023-03-19T01:49:04.814Z,-144.17
2023-03-19T01:51:39.609Z,-144.17
2023-03-19T01:54:11.825Z,-144.17
2023-03-19T01:56:40.875Z,-144.17
2023-03-19T01:59:12.808Z,-144.17
2023-03-19T02:01:45.457Z,-144.17
2023-03-19T02:04:13.945Z,-144.17
2023-03-19T02:06:44.212Z,-144.17
2023-03-19T02:09:14.397Z,-144.17
2023-03-19T02:11:42.800Z,-144.17
2023-03-19T02:14:12.519Z,-144.17
2023-03-19T02:16:41.287Z,-144.17
2023-03-19T02:19:12.338Z,-144.17
2023-03-19T02:21:40.612Z,-144.17
2023-03-19T02:24:14.750Z,-144.17
2023-03-19T02:26:44.700Z,-144.17
2023-03-19T02:29:13.229Z,-144.17
2023-03-19T02:31:41.762Z,-144.17
2023-03-19T02:34:35.891Z,-144.17
2023-03-19T02:37:09.252Z,-144.17
2023-03-19T02:39:40.152Z,-144.17
2023-03-19T02:42:11.254Z,-144.17
2023-03-19T02:44:39.487Z,-144.17
2023-03-19T02:47:08.213Z,-144.17
2023-03-19T02:49:37.306Z,-144.17
2023-03-19T02:52:05.961Z,-144.17
2023-03-19T02:54:34.199Z,-144.17
2023-03-19T02:57:02.703Z,-144.17
2023-03-19T02:59:32.448Z,-144.17
2023-03-19T03:02:00.737Z,-144.17
2023-03-19T03:04:29.458Z,-144.17
2023-03-19T03:06:57.881Z,-144.17
2023-03-19T03:09:27.271Z,-144.17
2023-03-19T03:11:56.171Z,-144.17
2023-03-19T03:14:24.869Z,-144.17
2023-03-19T03:16:54.641Z,-144.17
2023-03-19T03:19:23.650Z,-144.17
2023-03-19T03:21:52.135Z,-144.17
2023-03-19T03:24:20.453Z,-144.17
2023-03-19T03:26:48.811Z,-144.17
2023-03-19T03:29:17.163Z,-144.17
2023-03-19T03:31:45.588Z,-144.17
2023-03-19T03:34:15.602Z,-144.17
2023-03-19T03:36:43.959Z,-144.17
2023-03-19T03:39:12.208Z,-144.17
2023-03-19T03:41:40.556Z,-144.17
2023-03-19T03:44:09.435Z,-144.17
2023-03-19T03:46:37.726Z,-144.17
2023-03-19T03:49:06.135Z,-144.17
2023-03-19T03:51:35.903Z,-144.17
2023-03-19T03:54:04.196Z,-144.17
2023-03-19T03:56:33.516Z,-144.17
2023-03-19T03:59:02.185Z,-144.17
2023-03-19T04:01:30.897Z,-144.17
2023-03-19T04:03:59.973Z,-144.17
2023-03-19T04:06:29.038Z,-144.17
2023-03-19T04:08:58.730Z,-144.17
2023-03-19T04:11:27.087Z,-144.17
2023-03-19T04:13:57.201Z,-144.17
2023-03-19T04:16:26.598Z,-144.17
2023-03-19T04:18:55.116Z,-144.17
2023-03-19T04:21:23.405Z,-144.17
2023-03-19T04:23:51.828Z,-144.17
2023-03-19T04:26:21.593Z,-144.17
2023-03-19T04:28:49.898Z,-144.17
2023-03-19T04:31:18.338Z,-144.17
2023-03-19T04:33:46.916Z,-144.17
2023-03-19T04:36:15.333Z,-144.17
2023-03-19T04:38:43.742Z,-144.17
2023-03-19T04:41:12.124Z,-144.17
2023-03-19T04:43:41.810Z,-144.17
2023-03-19T04:46:10.175Z,-144.17
2023-03-19T04:48:40.046Z,-144.17
2023-03-19T04:51:09.868Z,-144.17
2023-03-19T04:53:38.973Z,-144.17
2023-03-19T04:56:08.856Z,-144.17
2023-03-19T04:58:37.270Z,-144.17
2023-03-19T05:01:07.184Z,-144.17
2023-03-19T05:03:56.347Z,-2.80
2023-03-19T05:06:24.658Z,-2.17
2023-03-19T05:08:52.938Z,-1.36
2023-03-19T05:11:21.681Z,-0.58
2023-03-19T05:13:50.477Z,0.49
2023-03-19T05:16:18.771Z,0.47
2023-03-19T05:18:49.070Z,0.47
2023-03-19T05:21:18.835Z,0.99
2023-03-19T05:23:47.162Z,0.64
2023-03-19T05:26:16.163Z,0.13
2023-03-19T05:28:44.432Z,0.50
2023-03-19T05:31:12.837Z,1.16
2023-03-19T05:33:42.050Z,1.14
2023-03-19T05:36:10.476Z,1.36
2023-03-19T05:38:41.056Z,0.13
2023-03-19T05:41:09.596Z,-0.59
2023-03-19T05:43:37.828Z,-0.62
2023-03-19T05:46:06.856Z,-0.69
2023-03-19T05:48:35.597Z,-0.86
2023-03-19T05:51:04.943Z,-1.16
2023-03-19T05:53:34.073Z,-1.44
2023-03-19T05:56:03.921Z,-1.44
2023-03-19T05:58:32.244Z,-1.40
2023-03-19T06:01:00.547Z,-1.58
2023-03-19T06:03:29.109Z,-1.04
2023-03-19T06:05:57.954Z,-0.76
2023-03-19T06:08:26.301Z,-0.38
2023-03-19T06:10:55.241Z,-0.46
2023-03-19T06:13:24.975Z,-0.75
2023-03-19T06:15:53.343Z,-0.93
2023-03-19T06:18:21.709Z,-0.85
2023-03-19T06:20:50.330Z,-0.51
2023-03-19T06:23:19.321Z,-0.68
2023-03-19T06:25:48.009Z,-0.59
2023-03-19T06:28:17.086Z,-0.14
2023-03-19T06:30:47.056Z,0.77
2023-03-19T06:33:15.849Z,2.11
2023-03-19T06:35:44.195Z,2.60
2023-03-19T06:38:12.494Z,2.38
2023-03-19T06:40:42.848Z,2.16
2023-03-19T06:43:12.034Z,2.19
2023-03-19T06:45:40.476Z,1.55
2023-03-19T06:48:10.308Z,1.94
2023-03-19T06:50:38.918Z,2.76
2023-03-19T06:53:08.028Z,3.29
2023-03-19T06:55:37.708Z,4.53
2023-03-19T06:58:06.074Z,6.68
2023-03-19T07:00:34.830Z,6.78
2023-03-19T07:03:03.263Z,5.66
2023-03-19T07:05:33.023Z,3.94
2023-03-19T07:08:01.298Z,2.84
2023-03-19T07:10:29.756Z,2.23
2023-03-19T07:12:58.332Z,2.35
2023-03-19T07:15:28.148Z,2.59
2023-03-19T07:17:57.563Z,2.43
2023-03-19T07:20:26.005Z,3.50
2023-03-19T07:22:55.850Z,4.82
2023-03-19T07:25:24.423Z,5.52
2023-03-19T07:27:55.922Z,5.28
2023-03-19T07:30:24.816Z,6.74
2023-03-19T07:32:53.378Z,6.58
2023-03-19T07:35:21.920Z,5.12
2023-03-19T07:37:50.343Z,5.25
2023-03-19T07:40:20.099Z,4.82
2023-03-19T07:42:48.435Z,4.61
2023-03-19T07:45:16.819Z,4.14
2023-03-19T07:47:45.105Z,5.65
2023-03-19T07:50:13.439Z,9.04
2023-03-19T07:52:41.905Z,10.06
2023-03-19T07:55:11.430Z,8.93
2023-03-19T07:57:41.694Z,7.93
2023-03-19T08:00:12.185Z,9.49
2023-03-19T08:02:40.731Z,9.36
2023-03-19T08:05:09.823Z,9.19
2023-03-19T08:07:38.167Z,9.93
2023-03-19T08:10:07.473Z,10.56
2023-03-19T08:12:41.263Z,8.06
2023-03-19T08:15:12.590Z,7.10
2023-03-19T08:17:40.936Z,5.89
2023-03-19T08:20:11.499Z,5.18
2023-03-19T08:22:40.583Z,6.51
2023-03-19T08:25:09.974Z,9.35
2023-03-19T08:27:38.348Z,10.57
2023-03-19T08:30:08.538Z,10.84
2023-03-19T08:32:38.850Z,9.77
2023-03-19T08:35:08.092Z,9.89
2023-03-19T08:37:36.474Z,10.76
2023-03-19T08:40:06.128Z,12.84
2023-03-19T08:42:34.624Z,12.47
2023-03-19T08:45:02.955Z,12.78
2023-03-19T08:47:32.330Z,11.76
2023-03-19T08:50:02.049Z,12.61
2023-03-19T08:52:31.529Z,12.95
2023-03-19T08:54:59.992Z,9.44
2023-03-19T08:57:28.329Z,9.91
2023-03-19T08:59:56.684Z,12.51
2023-03-19T09:02:25.099Z,11.99
2023-03-19T09:04:54.755Z,9.71
2023-03-19T09:07:24.607Z,10.13
2023-03-19T09:09:52.950Z,8.94
2023-03-19T09:12:21.431Z,8.97
2023-03-19T09:14:49.827Z,10.25
2023-03-19T09:17:18.656Z,10.36
2023-03-19T09:19:47.027Z,10.18
2023-03-19T09:22:15.484Z,9.95
2023-03-19T09:24:45.538Z,10.31
2023-03-19T09:27:13.884Z,10.70
2023-03-19T09:29:42.591Z,10.73
2023-03-19T09:32:11.143Z,10.97
2023-03-19T09:34:39.910Z,10.34
2023-03-19T09:37:09.028Z,9.71
2023-03-19T09:39:37.477Z,10.20
2023-03-19T09:42:17.400Z,9.33
2023-03-19T09:44:46.711Z,7.69
2023-03-19T09:47:26.283Z,7.97
2023-03-19T09:49:55.263Z,8.13
2023-03-19T09:52:32.454Z,8.90
2023-03-19T09:55:02.593Z,10.19
2023-03-19T09:57:34.349Z,10.83
2023-03-19T10:00:02.660Z,10.91
2023-03-19T10:02:42.089Z,8.98
2023-03-19T10:05:19.562Z,7.29
2023-03-19T10:08:14.162Z,6.39
2023-03-19T10:10:54.048Z,5.61
2023-03-19T10:13:40.589Z,7.78
2023-03-19T10:16:14.025Z,10.11
2023-03-19T10:18:46.189Z,9.88
2023-03-19T10:21:18.924Z,8.00
2023-03-19T10:23:50.070Z,7.13
2023-03-19T10:26:21.738Z,6.84
2023-03-19T10:28:59.211Z,7.75
2023-03-19T10:31:28.327Z,9.35
2023-03-19T10:34:03.526Z,9.01
2023-03-19T10:36:35.719Z,5.57
2023-03-19T10:39:08.046Z,4.80
2023-03-19T10:41:44.204Z,4.45
2023-03-19T10:44:23.522Z,4.38
2023-03-19T10:46:51.859Z,4.23
2023-03-19T10:49:20.161Z,4.18
2023-03-19T10:51:48.505Z,4.25
2023-03-19T10:54:24.486Z,3.67
2023-03-19T10:56:53.537Z,3.65
2023-03-19T10:59:26.257Z,3.92
2023-03-19T11:01:58.949Z,4.19
2023-03-19T11:04:29.962Z,4.11
2023-03-19T11:07:04.262Z,4.14
2023-03-19T11:09:36.488Z,4.11
2023-03-19T11:12:10.296Z,4.05
2023-03-19T11:14:41.547Z,4.08
2023-03-19T11:17:20.435Z,4.36
2023-03-19T11:19:53.495Z,4.52
2023-03-19T11:22:24.425Z,4.46
2023-03-19T11:24:55.788Z,4.26
2023-03-19T11:27:32.683Z,4.15
2023-03-19T11:30:02.713Z,4.24
2023-03-19T11:33:02.742Z,4.40
2023-03-19T11:35:34.520Z,4.09
2023-03-19T11:38:04.801Z,4.10
2023-03-19T11:40:41.475Z,4.04
2023-03-19T11:43:25.778Z,3.88
2023-03-19T11:46:02.807Z,3.84
2023-03-19T11:48:39.036Z,3.96
2023-03-19T11:51:12.491Z,4.18
2023-03-19T11:53:43.459Z,4.17
2023-03-19T11:56:17.725Z,3.76
2023-03-19T11:59:25.881Z,3.91
2023-03-19T12:02:22.987Z,3.79
2023-03-19T12:05:09.757Z,3.84
2023-03-19T12:07:47.217Z,3.85
2023-03-19T12:10:41.034Z,3.98
2023-03-19T12:13:18.360Z,4.27
2023-03-19T12:15:54.592Z,4.23
2023-03-19T12:18:35.179Z,4.47
2023-03-19T12:21:07.112Z,4.53
2023-03-19T12:23:44.771Z,4.64
2023-03-19T12:26:19.154Z,4.64
2023-03-19T12:28:54.229Z,4.86
2023-03-19T12:31:58.054Z,4.66
2023-03-19T12:34:32.218Z,4.45
2023-03-19T12:37:09.941Z,4.87
2023-03-19T12:39:41.447Z,5.07
2023-03-19T12:42:13.664Z,4.78
2023-03-19T12:44:45.104Z,4.74
2023-03-19T12:47:17.536Z,4.81
2023-03-19T12:49:52.297Z,4.86
2023-03-19T12:52:24.030Z,4.83
2023-03-19T12:54:58.119Z,4.53
2023-03-19T12:57:33.438Z,4.69
2023-03-19T13:00:06.731Z,4.91
2023-03-19T13:02:35.504Z,4.38
2023-03-19T13:05:09.088Z,4.29
2023-03-19T13:07:44.104Z,4.50
2023-03-19T13:10:16.333Z,4.34
2023-03-19T13:12:45.757Z,4.35
2023-03-19T13:15:18.752Z,4.15
2023-03-19T13:17:57.390Z,3.90
2023-03-19T13:20:35.010Z,4.09
2023-03-19T13:23:06.048Z,4.22
2023-03-19T13:25:36.904Z,4.35
2023-03-19T13:28:08.717Z,4.16
2023-03-19T13:30:39.531Z,4.26
2023-03-19T13:33:08.873Z,4.11
2023-03-19T13:35:40.924Z,3.98
2023-03-19T13:38:17.671Z,3.91
2023-03-19T13:40:48.491Z,3.83
2023-03-19T13:43:44.058Z,3.68
2023-03-19T13:46:32.517Z,3.73
2023-03-19T13:49:10.308Z,3.74
2023-03-19T13:51:40.175Z,3.70
2023-03-19T13:54:13.912Z,3.71
2023-03-19T13:57:05.095Z,3.76
2023-03-19T13:59:34.264Z,3.60
2023-03-19T14:02:03.245Z,3.63
2023-03-19T14:04:32.485Z,3.69
2023-03-19T14:07:12.688Z,3.58
2023-03-19T14:09:43.501Z,3.74
2023-03-19T14:12:14.099Z,3.64
2023-03-19T14:14:44.781Z,3.69
2023-03-19T14:17:16.994Z,3.59
2023-03-19T14:19:45.380Z,3.52
2023-03-19T14:22:22.114Z,3.40
2023-03-19T14:24:58.366Z,3.36
2023-03-19T14:27:30.954Z,3.32
2023-03-19T14:30:00.831Z,3.26
2023-03-19T14:32:34.772Z,3.32
2023-03-19T14:35:02.988Z,3.31
2023-03-19T14:37:40.130Z,3.27
2023-03-19T14:40:13.455Z,3.25
2023-03-19T14:42:52.849Z,3.24
2023-03-19T14:45:51.197Z,3.14
2023-03-19T14:48:27.981Z,3.04
2023-03-19T14:51:21.934Z,3.05
2023-03-19T14:53:52.028Z,3.07
2023-03-19T14:56:22.839Z,3.09
2023-03-19T14:58:52.318Z,2.88
2023-03-19T15:01:21.381Z,2.86
2023-03-19T15:03:55.724Z,2.85
2023-03-19T15:06:24.481Z,2.71
2023-03-19T15:08:54.256Z,2.68
2023-03-19T15:11:40.309Z,2.51
2023-03-19T15:14:22.289Z,2.59
2023-03-19T15:16:55.977Z,2.56
2023-03-19T15:19:27.298Z,2.58
2023-03-19T15:22:05.788Z,2.55
2023-03-19T15:24:36.364Z,2.44
2023-03-19T15:27:19.741Z,2.41
2023-03-19T15:29:50.686Z,2.37
2023-03-19T15:35:27.603Z,2.21
2023-03-19T15:38:00.173Z,2.00
2023-03-19T15:40:31.556Z,1.90
2023-03-19T15:43:02.653Z,1.87
2023-03-19T15:45:33.741Z,1.55
2023-03-19T15:48:05.952Z,1.35
2023-03-19T15:50:37.275Z,1.13
2023-03-19T15:53:09.020Z,0.93
2023-03-19T15:55:38.915Z,0.93
2023-03-19T15:58:11.133Z,0.73
2023-03-19T16:00:41.267Z,0.59
2023-03-19T16:03:14.401Z,0.47
2023-03-19T16:05:42.862Z,0.43
2023-03-19T16:08:18.895Z,0.43
2023-03-19T16:10:48.722Z,0.36
2023-03-19T16:13:28.255Z,0.22
2023-03-19T16:16:00.984Z,0.18
2023-03-19T16:18:32.026Z,0.23
2023-03-19T16:21:11.073Z,0.04
2023-03-19T16:23:42.785Z,-0.07
2023-03-19T16:26:21.960Z,0.08
2023-03-19T16:28:57.648Z,0.03
2023-03-19T16:31:29.027Z,-0.02
2023-03-19T16:33:57.899Z,-0.10
2023-03-19T16:36:29.531Z,-0.09
2023-03-19T16:39:00.250Z,-0.28
2023-03-19T16:41:33.907Z,-0.30
2023-03-19T16:44:17.603Z,-0.26
2023-03-19T16:46:46.490Z,-0.23
2023-03-19T16:49:15.431Z,-0.28
2023-03-19T16:51:44.225Z,-0.26
2023-03-19T16:54:14.659Z,-0.21
2023-03-19T16:56:44.489Z,-0.30
2023-03-19T16:59:21.185Z,-0.28
2023-03-19T17:01:49.609Z,-0.12
2023-03-19T17:04:18.127Z,0.12
2023-03-19T17:06:46.537Z,0.10
2023-03-19T17:09:15.033Z,0.03
2023-03-19T17:11:45.221Z,-0.11
2023-03-19T17:14:17.278Z,-0.28
2023-03-19T17:16:50.558Z,-0.14
2023-03-19T17:19:20.177Z,-0.26
2023-03-19T17:21:49.654Z,-0.44
2023-03-19T17:24:24.436Z,-0.42
2023-03-19T17:26:54.652Z,-0.23
2023-03-19T17:29:25.033Z,-0.24
2023-03-19T17:31:56.735Z,-0.33
2023-03-19T17:34:26.717Z,-0.62
2023-03-19T17:36:56.364Z,-0.66
2023-03-19T17:39:25.043Z,-0.38
2023-03-19T17:41:55.207Z,-0.46
2023-03-19T17:44:23.629Z,-0.50
2023-03-19T17:46:53.891Z,-0.50
2023-03-19T17:49:24.873Z,-0.47
2023-03-19T17:51:53.302Z,-0.04
2023-03-19T17:54:22.111Z,-0.11
2023-03-19T17:56:50.794Z,-0.17
2023-03-19T17:59:20.484Z,-0.37
2023-03-19T18:01:48.829Z,-0.50
2023-03-19T18:04:20.197Z,-0.65
2023-03-19T18:06:51.576Z,-0.75
2023-03-19T18:09:22.272Z,-0.91
2023-03-19T18:11:50.602Z,-0.94
2023-03-19T18:14:20.499Z,-1.03
2023-03-19T18:16:49.194Z,-0.98
2023-03-19T18:19:21.541Z,-0.98
2023-03-19T18:21:50.859Z,-0.93
2023-03-19T18:24:19.748Z,-0.91
2023-03-19T18:26:48.151Z,-1.00
2023-03-19T18:29:16.937Z,-0.98
2023-03-19T18:31:49.344Z,-0.80
2023-03-19T18:34:18.351Z,-0.85
2023-03-19T18:36:46.825Z,-0.85
2023-03-19T18:39:16.804Z,-0.85
2023-03-19T18:41:46.011Z,-0.96
2023-03-19T18:44:14.304Z,-1.03
2023-03-19T18:46:43.400Z,-1.13
2023-03-19T18:49:21.070Z,-1.14
2023-03-19T18:52:01.668Z,-1.14
2023-03-19T18:54:32.428Z,-1.03
2023-03-19T18:57:02.106Z,-1.06
2023-03-19T18:59:33.043Z,-1.24
2023-03-19T19:02:03.425Z,-1.26
2023-03-19T19:04:33.530Z,-1.40
2023-03-19T19:07:02.142Z,-1.28
2023-03-19T19:09:30.659Z,-1.29
2023-03-19T19:12:01.304Z,-1.34
2023-03-19T19:14:29.767Z,-1.34
2023-03-19T19:16:58.271Z,-1.32
2023-03-19T19:19:28.159Z,-1.44
2023-03-19T19:21:57.853Z,-1.58
2023-03-19T19:24:26.305Z,-1.60
2023-03-19T19:26:57.081Z,-1.62
2023-03-19T19:29:26.818Z,-1.56
2023-03-19T19:31:55.495Z,-1.51
2023-03-19T19:34:24.568Z,-1.46
2023-03-19T19:36:55.591Z,-1.42
2023-03-19T19:39:25.562Z,-1.46
2023-03-19T19:41:56.325Z,-1.56
2023-03-19T19:44:24.799Z,-1.64
2023-03-19T19:46:54.765Z,-1.76
2023-03-19T19:49:24.910Z,-1.75
2023-03-19T19:51:53.219Z,-1.63
2023-03-19T19:54:21.991Z,-1.65
2023-03-19T19:56:52.334Z,-1.72
2023-03-19T19:59:23.753Z,-1.76
2023-03-19T20:01:52.606Z,-1.79
2023-03-19T20:04:21.859Z,-1.89
2023-03-19T20:06:51.505Z,-1.84
2023-03-19T20:09:19.817Z,-1.85
2023-03-19T20:11:48.147Z,-1.86
2023-03-19T20:14:17.921Z,-1.94
2023-03-19T20:16:46.244Z,-1.90
2023-03-19T20:19:18.991Z,-1.80
2023-03-19T20:21:47.409Z,-1.72
2023-03-19T20:24:15.710Z,-1.67
2023-03-19T20:26:44.903Z,-1.71
2023-03-19T20:29:17.305Z,-1.71
2023-03-19T20:31:48.147Z,-1.88
2023-03-19T20:34:28.610Z,-2.01
2023-03-19T20:37:04.964Z,-2.38
2023-03-19T20:39:33.330Z,-2.37
2023-03-19T20:42:01.724Z,-2.42
2023-03-19T20:44:31.583Z,-2.45
2023-03-19T20:46:59.940Z,-2.34
2023-03-19T20:49:29.221Z,-2.11
2023-03-19T20:51:57.604Z,-2.08
2023-03-19T20:54:26.235Z,-2.05
2023-03-19T20:56:54.543Z,-2.18
2023-03-19T20:59:22.937Z,-2.25
2023-03-19T21:01:56.484Z,-2.31
2023-03-19T21:04:24.953Z,-2.16
2023-03-19T21:06:54.222Z,-2.23
2023-03-19T21:09:23.827Z,-2.35
2023-03-19T21:11:53.063Z,-2.43
2023-03-19T21:14:23.446Z,-2.41
2023-03-19T21:16:53.332Z,-2.46
2023-03-19T21:19:21.567Z,-2.44
2023-03-19T21:21:50.044Z,-2.51
2023-03-19T21:24:21.111Z,-2.60
2023-03-19T21:26:49.493Z,-2.68
2023-03-19T21:29:22.941Z,-2.77
2023-03-19T21:31:57.977Z,-2.73
2023-03-19T21:34:26.506Z,-2.60
2023-03-19T21:36:54.793Z,-2.56
2023-03-19T21:39:23.120Z,-2.58
2023-03-19T21:41:51.459Z,-2.56
2023-03-19T21:44:22.412Z,-2.63
2023-03-19T21:46:52.892Z,-2.67
2023-03-19T21:49:21.970Z,-2.78
2023-03-19T21:51:50.585Z,-2.79
2023-03-19T21:54:18.985Z,-2.56
2023-03-19T21:56:47.419Z,-2.42
2023-03-19T21:59:16.924Z,-2.55
2023-03-19T22:01:45.535Z,-2.75
2023-03-19T22:04:16.003Z,-2.76
2023-03-19T22:06:44.293Z,-2.83
2023-03-19T22:09:12.677Z,-2.88
2023-03-19T22:11:41.970Z,-2.92
2023-03-19T22:14:15.896Z,-3.00
2023-03-19T22:16:44.773Z,-3.03
2023-03-19T22:19:15.953Z,-3.08
2023-03-19T22:21:44.319Z,-3.07
2023-03-19T22:24:12.626Z,-3.15
2023-03-19T22:26:42.591Z,-3.11
2023-03-19T22:29:16.039Z,-3.02
2023-03-19T22:31:44.207Z,-3.07
2023-03-19T22:34:18.001Z,-3.17
2023-03-19T22:36:46.787Z,-3.18
2023-03-19T22:39:15.145Z,-3.23
2023-03-19T22:41:45.776Z,-3.26
2023-03-19T22:44:18.590Z,-3.27
2023-03-19T22:46:46.976Z,-3.36
2023-03-19T22:49:18.531Z,-3.45
2023-03-19T22:51:47.570Z,-3.58
2023-03-19T22:54:15.853Z,-3.57
2023-03-19T22:56:44.157Z,-3.53
2023-03-19T22:59:12.582Z,-3.53
2023-03-19T23:01:42.154Z,-3.51
2023-03-19T23:04:20.928Z,-3.69
2023-03-19T23:06:49.356Z,-3.67
2023-03-19T23:09:19.811Z,-3.67
2023-03-19T23:11:48.516Z,-3.67
2023-03-19T23:14:28.938Z,-3.60
2023-03-19T23:19:29.919Z,-3.66
2023-03-19T23:21:59.177Z,-3.63
2023-03-19T23:24:28.026Z,-3.53
2023-03-19T23:26:57.871Z,-3.41
2023-03-19T23:29:29.569Z,-3.39
2023-03-19T23:31:59.129Z,-3.66
2023-03-19T23:34:29.836Z,-3.73
2023-03-19T23:37:00.106Z,-3.73
2023-03-19T23:39:28.996Z,-3.55
2023-03-19T23:41:59.056Z,-3.54
2023-03-19T23:44:29.285Z,-3.64
2023-03-19T23:47:01.264Z,-3.78
2023-03-19T23:49:33.340Z,-3.94
2023-03-19T23:52:04.527Z,-3.90
2023-03-19T23:54:34.103Z,-3.90
2023-03-19T23:57:05.282Z,-4.14
2023-03-19T23:59:35.340Z,-4.29
